< Typhoon 202221 2022 Season Typhoon 202223 >
Typhoon 202222 (NALGAE)
General InformationTrack Information on Google MapsDetailed Wind InformationForecast History on Google MapsAccess Analytics MapList of All Images || NewsDisaster Info.JMA Disaster Info. XMLWeblogTrackbackTyphoon FrontTwiphoonTyphoon Now!Typhoon ImaginationResourceGoogle EarthGE AnimationAtom FeedGeoJSON
Detalied Best Track (Time Zone = UTC)
Year Month Day Hour Lat. Long. Pressure (hPa) Wind (kt) Class Image Chart
2022 10 26 00 12.6 134.9 1004 30 2 Image Chart
2022 10 26 03 12.6 134.2 1004 30 2 Image Chart
2022 10 26 06 12.7 133.6 1002 30 2 Image Chart
2022 10 26 09 12.7 133.4 1002 30 2 Image Chart
2022 10 26 12 12.7 133.2 1004 30 2 Image Chart
2022 10 26 15 12.7 132.9 1002 30 2 Image Chart
2022 10 26 18 12.7 132.6 1000 30 2 Image Chart
2022 10 26 21 12.6 132.5 1000 30 2 Image Chart
2022 10 27 00 12.2 132.0 998 35 3 Image Chart
2022 10 27 03 11.9 131.5 998 35 3 Image Chart
2022 10 27 06 11.5 131.3 996 35 3 Image Chart
2022 10 27 09 11.3 130.9 996 35 3 Image Chart
2022 10 27 12 11.2 130.5 996 35 3 Image Chart
2022 10 27 15 11.2 130.1 996 35 3 Image Chart
2022 10 27 18 11.3 129.6 996 35 3 Image Chart
2022 10 27 21 11.6 129.0 996 35 3 Image Chart
2022 10 28 00 11.8 128.4 994 40 3 Image Chart
2022 10 28 03 11.9 127.5 994 40 3 Image Chart
2022 10 28 06 12.1 126.8 994 40 3 Image Chart
2022 10 28 09 12.7 126.0 992 40 3 Image Chart
2022 10 28 12 13.3 125.5 990 45 3 Image Chart
2022 10 28 15 13.6 124.8 990 45 3 Image Chart
2022 10 28 18 13.7 124.0 985 50 4 Image Chart
2022 10 28 21 13.5 122.8 985 50 4 Image Chart
2022 10 29 00 13.4 122.3 985 50 4 Image Chart
2022 10 29 03 13.6 121.9 985 50 4 Image Chart
2022 10 29 06 14.0 121.8 985 50 4 Image Chart
2022 10 29 09 14.4 121.4 985 50 4 Image Chart
2022 10 29 12 14.6 121.3 985 50 4 Image Chart
2022 10 29 15 15.4 120.9 985 50 4 Image Chart
2022 10 29 18 15.6 120.0 985 50 4 Image Chart
2022 10 29 21 15.8 119.6 985 50 4 Image Chart
2022 10 30 00 16.3 118.7 985 50 4 Image Chart
2022 10 30 03 16.2 117.9 985 50 4 Image Chart
2022 10 30 06 16.1 117.7 990 45 3 Image Chart
2022 10 30 09 15.8 117.4 990 45 3 Image Chart
2022 10 30 12 15.9 117.3 990 45 3 Image Chart
2022 10 30 15 16.0 117.3 990 45 3 Image Chart
2022 10 30 18 16.0 117.0 990 45 3 Image Chart
2022 10 30 21 16.0 116.9 990 45 3 Image Chart
2022 10 31 00 16.1 116.8 985 50 4 Image Chart
2022 10 31 03 16.6 117.0 985 50 4 Image Chart
2022 10 31 06 17.4 116.4 975 60 4 Image Chart
2022 10 31 09 17.6 116.4 975 60 4 Image Chart
2022 10 31 12 17.9 116.4 975 60 4 Image Chart
2022 10 31 15 18.4 116.1 975 60 4 Image Chart
2022 10 31 18 18.6 116.1 975 60 4 Image Chart
2022 10 31 21 18.7 116.0 975 60 4 Image Chart
2022 11 1 00 18.8 115.9 975 60 4 Image Chart
2022 11 1 03 18.9 115.9 975 60 4 Image Chart
2022 11 1 06 19.2 115.9 975 60 4 Image Chart
2022 11 1 09 19.5 115.8 975 60 4 Image Chart
2022 11 1 12 19.8 115.5 975 60 4 Image Chart
2022 11 1 15 20.0 115.3 975 60 4 Image Chart
2022 11 1 18 20.2 115.2 990 50 4 Image Chart
2022 11 1 21 20.4 115.1 990 50 4 Image Chart
2022 11 2 00 20.6 115.0 994 45 3 Image Chart
2022 11 2 03 20.7 114.7 994 45 3 Image Chart
2022 11 2 06 20.9 114.7 994 45 3 Image Chart
2022 11 2 09 21.3 114.8 994 45 3 Image Chart
2022 11 2 12 21.3 114.7 998 40 3 Image Chart
2022 11 2 15 21.3 114.4 998 40 3 Image Chart
2022 11 2 18 21.6 114.2 1000 40 3 Image Chart
2022 11 2 21 21.7 114.0 1002 35 3 Image Chart
2022 11 3 00 22.0 113.0 1010 0 2 Image Chart
Japan Meteorological Agency Best Track Data | Correction Date : 2022-11-03
< Typhoon 202221 2022 Season Typhoon 202223 >

Help